FranceFixed distance
Grand Raid Ventoux by UTMB - 50K
25 Apr2026
Distance
49km
Finishers
1,3221,109 men212 women
Winning time
3:58:50h
Median pace
6.35km/h
Pace distribution
1,321 finishers · 4.20–12.31 km/h · mean 6.54
Every finisher ran the same 49 km course, so these paces are directly comparable.
Histogram of finisher pace. 1,321 finishers ranged from 4.20 to 12.31 kilometres per hour, with a mean of 6.54 and a median of 6.35. The busiest band is 5.5 to 6.0 kilometres per hour, with 225 finishers.
Results
Ranks 1,051–1,100 of 1,321
| Rank | Runner | Time | Pace | Cat. | Placing |
|---|---|---|---|---|---|
| 1052 | Leroy, IlonaFranceWoman | 8:55:44h | 5.49 | W23 | 134th F · 78th W23 |
| 1053 | Dartois, DavidFranceMan PAS de Club | 8:56:07h | 5.48 | M55 | 919th M · 27th M55 |
| 1053 | Dartois, YannisFranceMan | 8:56:07h | 5.48 | M50 | 919th M · 52nd M50 |
| 1055 | Guigou, CarolineFranceWoman Dijonsingletrack | 8:57:06h | 5.47 | W35 | 135th F · 24th W35 |
| 1056 | Colin, AlexandreFranceMan | 8:57:14h | 5.47 | M23 | 921st M · 458th M23 |
| 1056 | Warlop, IsaacBelgiumMan | 8:57:14h | 5.47 | M23 | 921st M · 458th M23 |
| 1058 | Batoufflet, LudovicFranceMan | 8:57:29h | 5.47 | M23 | 923rd M · 460th M23 |
| 1059 | Renou, SebastienFranceMan | 8:57:36h | 5.47 | M45 | 924th M · 66th M45 |
| 1060 | Dehaynin, ChristineFranceWoman | 8:57:47h | 5.47 | W55 | 136th F · 5th W55 |
| 1061 | Goudedranche, MarieFranceWoman Courir Dans les Monts ... | 8:57:55h | 5.47 | W40 | 137th F · 15th W40 |
| 1062 | Lefebvre, ArnaudFranceMan Km610 | 8:58:01h | 5.46 | M35 | 925th M · 163rd M35 |
| 1063 | Herail, HugoFranceMan G&B | 8:58:13h | 5.46 | M23 | 926th M · 461st M23 |
| 1064 | Bouyssou, AurelieFranceWoman | 8:58:41h | 5.46 | W23 | 138th F · 79th W23 |
| 1065 | Huc, ClementFranceMan | 8:58:44h | 5.46 | M23 | 927th M · 462nd M23 |
| 1065 | Ginestet, KevinFranceMan Sourc | 8:58:44h | 5.46 | M23 | 927th M · 462nd M23 |
| 1067 | Laffargue, CamilleFranceMan | 8:59:19h | 5.45 | M23 | 929th M · 464th M23 |
| 1068 | Brizeau, QuentinFranceMan | 8:59:27h | 5.45 | M23 | 930th M · 465th M23 |
| 1069 | Demeure Velazquez, MarionFranceWoman | 8:59:31h | 5.45 | W40 | 139th F · 16th W40 |
| 1070 | Rousset, GeraldFranceMan | 8:59:41h | 5.45 | M55 | 931st M · 28th M55 |
| 1071 | Ahmed, NicolasFranceMan | 8:59:56h | 5.45 | M40 | 932nd M · 120th M40 |
| 1072 | Durand, NicolasFranceMan | 9:00:04h | 5.44 | M35 | 933rd M · 164th M35 |
| 1072 | Eglem, OlivierFranceMan | 9:00:04h | 5.44 | M40 | 933rd M · 121st M40 |
| 1074 | Brule, EmelineFranceWoman | 9:00:06h | 5.44 | W23 | 140th F · 80th W23 |
| 1074 | Crestin, ClementFranceMan | 9:00:06h | 5.44 | M23 | 935th M · 466th M23 |
| 1076 | Bassement, LoicFranceMan | 9:00:09h | 5.44 | M45 | 936th M · 67th M45 |
| 1077 | Deglarges, HugoFranceMan Noctua Running Club | 9:00:17h | 5.44 | M23 | 937th M · 467th M23 |
| 1078 | Cheffert, SimonBelgiumMan Profondeville | 9:00:30h | 5.44 | M40 | 938th M · 122nd M40 |
| 1079 | Lespinasse, AlbanFranceMan | 9:00:37h | 5.44 | M23 | 939th M · 468th M23 |
| 1080 | Decaix, VictorFranceMan | 9:01:16h | 5.43 | M35 | 940th M · 165th M35 |
| 1081 | Pfrimmer, PierreFranceMan | 9:01:33h | 5.43 | M23 | 941st M · 469th M23 |
| 1082 | N., N.Individual Neutral AthletesMan | 9:01:43h | 5.43 | M55 | 942nd M · 29th M55 |
| 1083 | Vinant, TimotheeFranceMan | 9:01:59h | 5.42 | M23 | 943rd M · 470th M23 |
| 1084 | Vignier, ClementFranceMan CAP Groupama | 9:02:16h | 5.42 | M40 | 944th M · 123rd M40 |
| 1085 | Lefranc, ArnaudFranceMan Team Brasserie du Mont... | 9:02:48h | 5.42 | M50 | 945th M · 53rd M50 |
| 1085 | Dupre, ChristianFranceMan | 9:02:48h | 5.42 | M50 | 945th M · 53rd M50 |
| 1087 | Berry, RichardFranceMan | 9:02:51h | 5.42 | M50 | 947th M · 55th M50 |
| 1088 | Letellier, VincentFranceMan Shrimp Team | 9:03:12h | 5.41 | M23 | 948th M · 471st M23 |
| 1089 | Lammens, DidierFranceMan | 9:03:33h | 5.41 | M50 | 949th M · 56th M50 |
| 1090 | Vimare, BenjaminFranceMan | 9:03:36h | 5.41 | M35 | 950th M · 166th M35 |
| 1091 | Traineau, Jean-CharlesFranceMan | 9:04:32h | 5.40 | M40 | 951st M · 124th M40 |
| 1092 | Chicot, MatteoFranceMan | 9:04:35h | 5.40 | MU23 | 952nd M · 29th MU23 |
| 1093 | Weiss, AmelieFranceWoman | 9:04:47h | 5.40 | W23 | 141st F · 81st W23 |
| 1094 | Nicolas, JulienFranceMan JA Fretin | 9:04:58h | 5.39 | M40 | 953rd M · 125th M40 |
| 1095 | Bonnet, NathalieFranceWoman Asva | 9:05:24h | 5.39 | W50 | 142nd F · 8th W50 |
| 1096 | Brunet, RomainFranceMan | 9:05:34h | 5.39 | M40 | 954th M · 126th M40 |
| 1097 | Madureira, AntonioFranceMan | 9:05:51h | 5.39 | M50 | 955th M · 57th M50 |
| 1098 | Landais, ChristopheFranceMan Scap Montelimar | 9:05:55h | 5.38 | M55 | 956th M · 30th M55 |
| 1099 | Thevenot, DelphineFranceWoman | 9:06:30h | 5.38 | W40 | 143rd F · 17th W40 |
| 1100 | Stiz, StevenSwitzerlandMan Crust and Cadence | 9:06:45h | 5.38 | M23 | 957th M · 472nd M23 |
| 1101 | Agard, PaulFranceMan | 9:07:11h | 5.37 | M23 | 958th M · 473rd M23 |
- 1052Leroy, IlonaFranceWoman134th F · 78th W23Time8:55:44hPace5.49Cat.W23
- 1053Dartois, DavidFranceManPAS de Club919th M · 27th M55Time8:56:07hPace5.48Cat.M55
- 1053Dartois, YannisFranceMan919th M · 52nd M50Time8:56:07hPace5.48Cat.M50
- 1055Guigou, CarolineFranceWomanDijonsingletrack135th F · 24th W35Time8:57:06hPace5.47Cat.W35
- 1056Colin, AlexandreFranceMan921st M · 458th M23Time8:57:14hPace5.47Cat.M23
- 1056Warlop, IsaacBelgiumMan921st M · 458th M23Time8:57:14hPace5.47Cat.M23
- 1058Batoufflet, LudovicFranceMan923rd M · 460th M23Time8:57:29hPace5.47Cat.M23
- 1059Renou, SebastienFranceMan924th M · 66th M45Time8:57:36hPace5.47Cat.M45
- 1060Dehaynin, ChristineFranceWoman136th F · 5th W55Time8:57:47hPace5.47Cat.W55
- 1061Goudedranche, MarieFranceWomanCourir Dans les Monts ...137th F · 15th W40Time8:57:55hPace5.47Cat.W40
- 1062Lefebvre, ArnaudFranceManKm610925th M · 163rd M35Time8:58:01hPace5.46Cat.M35
- 1063Herail, HugoFranceManG&B926th M · 461st M23Time8:58:13hPace5.46Cat.M23
- 1064Bouyssou, AurelieFranceWoman138th F · 79th W23Time8:58:41hPace5.46Cat.W23
- 1065Huc, ClementFranceMan927th M · 462nd M23Time8:58:44hPace5.46Cat.M23
- 1065Ginestet, KevinFranceManSourc927th M · 462nd M23Time8:58:44hPace5.46Cat.M23
- 1067Laffargue, CamilleFranceMan929th M · 464th M23Time8:59:19hPace5.45Cat.M23
- 1068Brizeau, QuentinFranceMan930th M · 465th M23Time8:59:27hPace5.45Cat.M23
- 1069Demeure Velazquez, MarionFranceWoman139th F · 16th W40Time8:59:31hPace5.45Cat.W40
- 1070Rousset, GeraldFranceMan931st M · 28th M55Time8:59:41hPace5.45Cat.M55
- 1071Ahmed, NicolasFranceMan932nd M · 120th M40Time8:59:56hPace5.45Cat.M40
- 1072Durand, NicolasFranceMan933rd M · 164th M35Time9:00:04hPace5.44Cat.M35
- 1072Eglem, OlivierFranceMan933rd M · 121st M40Time9:00:04hPace5.44Cat.M40
- 1074Brule, EmelineFranceWoman140th F · 80th W23Time9:00:06hPace5.44Cat.W23
- 1074Crestin, ClementFranceMan935th M · 466th M23Time9:00:06hPace5.44Cat.M23
- 1076Bassement, LoicFranceMan936th M · 67th M45Time9:00:09hPace5.44Cat.M45
- 1077Deglarges, HugoFranceManNoctua Running Club937th M · 467th M23Time9:00:17hPace5.44Cat.M23
- 1078Cheffert, SimonBelgiumManProfondeville938th M · 122nd M40Time9:00:30hPace5.44Cat.M40
- 1079Lespinasse, AlbanFranceMan939th M · 468th M23Time9:00:37hPace5.44Cat.M23
- 1080Decaix, VictorFranceMan940th M · 165th M35Time9:01:16hPace5.43Cat.M35
- 1081Pfrimmer, PierreFranceMan941st M · 469th M23Time9:01:33hPace5.43Cat.M23
- 1082N., N.Individual Neutral AthletesMan942nd M · 29th M55Time9:01:43hPace5.43Cat.M55
- 1083Vinant, TimotheeFranceMan943rd M · 470th M23Time9:01:59hPace5.42Cat.M23
- 1084Vignier, ClementFranceManCAP Groupama944th M · 123rd M40Time9:02:16hPace5.42Cat.M40
- 1085Lefranc, ArnaudFranceManTeam Brasserie du Mont...945th M · 53rd M50Time9:02:48hPace5.42Cat.M50
- 1085Dupre, ChristianFranceMan945th M · 53rd M50Time9:02:48hPace5.42Cat.M50
- 1087Berry, RichardFranceMan947th M · 55th M50Time9:02:51hPace5.42Cat.M50
- 1088Letellier, VincentFranceManShrimp Team948th M · 471st M23Time9:03:12hPace5.41Cat.M23
- 1089Lammens, DidierFranceMan949th M · 56th M50Time9:03:33hPace5.41Cat.M50
- 1090Vimare, BenjaminFranceMan950th M · 166th M35Time9:03:36hPace5.41Cat.M35
- 1091Traineau, Jean-CharlesFranceMan951st M · 124th M40Time9:04:32hPace5.40Cat.M40
- 1092Chicot, MatteoFranceMan952nd M · 29th MU23Time9:04:35hPace5.40Cat.MU23
- 1093Weiss, AmelieFranceWoman141st F · 81st W23Time9:04:47hPace5.40Cat.W23
- 1094Nicolas, JulienFranceManJA Fretin953rd M · 125th M40Time9:04:58hPace5.39Cat.M40
- 1095Bonnet, NathalieFranceWomanAsva142nd F · 8th W50Time9:05:24hPace5.39Cat.W50
- 1096Brunet, RomainFranceMan954th M · 126th M40Time9:05:34hPace5.39Cat.M40
- 1097Madureira, AntonioFranceMan955th M · 57th M50Time9:05:51hPace5.39Cat.M50
- 1098Landais, ChristopheFranceManScap Montelimar956th M · 30th M55Time9:05:55hPace5.38Cat.M55
- 1099Thevenot, DelphineFranceWoman143rd F · 17th W40Time9:06:30hPace5.38Cat.W40
- 1100Stiz, StevenSwitzerlandManCrust and Cadence957th M · 472nd M23Time9:06:45hPace5.38Cat.M23
- 1101Agard, PaulFranceMan958th M · 473rd M23Time9:07:11hPace5.37Cat.M23
Showing ranks 1,051–1,100 of 1,321